Thunder radar more information blitzortung!


Radar de pluja more information rain snow radar


Visita la nostra xarxa de llocs de meteo:

Template documentation
and downloads

And another site



No particular awareness of the weather is required.    There are no Weather-warnings

Pagina Historial Weather Underground text

Diari Resum Desembre 16, 2017 Unitats:  Mètric    Imperial   Tant
« Previous Dia
SegĂźent Dia »
Diari Setmana Mensual Anual Personalitzada
  Maxima: Minima: Media:
Temperatura: -17.8 °C -16.4 °C -13.3 °C
Punt de rosada: -17.8 °C -22.6 °C -19.2 °C
Humitat: Humidity % 40 % 48 %
Wind Speed: 0 km/h 0 km/h 10.1 km/h
RĂ fegues de vent: 0 km/h - -
Vent:- - WSW
Pression baro: 0 hPa 34198.6 hPa -
Precipitacions: 0 mm    
Historical Graphs
 
 
Dades de taula per Desembre 16, 2017
Temps Temperatura Punt de rosada Pression baro Vent Wind Speed RĂ fegues de vent Humitat Rainfall Rate (Hourly)
-17.8 °C -17.8 °C 0 hPa Calm     Humidity % 0 mm
00:01 -14.1 °C -19 °C 34198.6 hPa WSW 15.3 km/h 15.3 km/h 53 % 0 mm
00:05 -16 °C -19.7 °C 34256.2 hPa WSW 2.6 km/h 5.1 km/h 62 % 0 mm
00:06 -14.1 °C -19.1 °C 34198.6 hPa North 8.5 km/h 8.5 km/h 53 % 0 mm
00:15 -15.9 °C -19.7 °C 34256.2 hPa West 5.1 km/h 5.1 km/h 61 % 0 mm
00:25 -15.9 °C -19.6 °C 34256.2 hPa West 2.6 km/h 5.1 km/h 62 % 0 mm
00:35 -16 °C -19.7 °C 34256.2 hPa West 2.6 km/h 10.3 km/h 62 % 0 mm
00:45 -16 °C -19.6 °C 34256.2 hPa NW 2.6 km/h 5.1 km/h 63 % 0 mm
00:55 -16 °C -19.7 °C 34256.2 hPa NE 2.6 km/h 10.3 km/h 62 % 0 mm
01:05 -16 °C -19.7 °C 34256.2 hPa North 2.6 km/h 5.1 km/h 62 % 0 mm
01:15 -16.1 °C -19.6 °C 34256.2 hPa NNE 2.6 km/h 7.7 km/h 63 % 0 mm
01:25 -16.1 °C -19.7 °C 34256.2 hPa NNW 5.1 km/h 5.1 km/h 63 % 0 mm
01:35 -16.2 °C -19.7 °C 34256.2 hPa NW 2.6 km/h 5.1 km/h 63 % 0 mm
01:45 -16.3 °C -19.8 °C 34256.2 hPa WNW 2.6 km/h 10.3 km/h 63 % 0 mm
01:55 -16.2 °C -19.8 °C 34293.4 hPa West 5.1 km/h 7.7 km/h 63 % 0 mm
02:05 -16.4 °C -19.9 °C 34327.3 hPa West 5.1 km/h 5.1 km/h 63 % 0 mm
02:15 -16.3 °C -19.7 °C 34327.3 hPa West 5.1 km/h 7.7 km/h 64 % 0 mm
02:25 -16.3 °C -19.8 °C 34327.3 hPa NE 2.6 km/h 7.7 km/h 64 % 0 mm
02:35 -16.3 °C -19.7 °C 34327.3 hPa NE 5.1 km/h 7.7 km/h 64 % 0 mm
02:45 -16.1 °C -19.3 °C 34327.3 hPa NE 2.6 km/h 7.7 km/h 65 % 0 mm
02:55 -15.8 °C -19.1 °C 34327.3 hPa ENE 2.6 km/h 7.7 km/h 65 % 0 mm
03:05 -15.6 °C -19 °C 34327.3 hPa East 5.1 km/h 7.7 km/h 64 % 0 mm
03:15 -15.4 °C -19 °C 34327.3 hPa East 5.1 km/h 7.7 km/h 63 % 0 mm
03:25 -15.3 °C -18.9 °C 34327.3 hPa ENE 7.7 km/h 7.7 km/h 63 % 0 mm
03:35 -15.2 °C -18.9 °C 34361.1 hPa NE 5.1 km/h 10.3 km/h 62 % 0 mm
03:45 -14.7 °C -18.4 °C 34361.1 hPa NE 2.6 km/h 7.7 km/h 62 % 0 mm
03:55 -14.7 °C -18.6 °C 34361.1 hPa NNE 5.1 km/h 7.7 km/h 61 % 0 mm
04:05 -14.3 °C -18.2 °C 34361.1 hPa North 2.6 km/h 2.6 km/h 61 % 0 mm
04:15 -14.4 °C -18.6 °C 34361.1 hPa North 5.1 km/h 7.7 km/h 59 % 0 mm
04:25 -14.3 °C -18.4 °C 34395 hPa NE 2.6 km/h 7.7 km/h 59 % 0 mm
04:35 -14 °C -18.2 °C 34395 hPa NE 2.6 km/h 5.1 km/h 59 % 0 mm
04:45 -13.8 °C -17.9 °C 34395 hPa West 2.6 km/h 7.7 km/h 59 % 0 mm
04:55 -13.6 °C -17.9 °C 34395 hPa SSW 5.1 km/h 10.3 km/h 58 % 0 mm
05:05 -13.4 °C -17.7 °C 34395 hPa East 5.1 km/h 5.1 km/h 58 % 0 mm
05:15 -13.3 °C -17.7 °C 34395 hPa NNE 5.1 km/h 20.8 km/h 57 % 0 mm
11:24 -13.2 °C -17.6 °C 34395 hPa WNW 9 km/h 9 km/h 57 % 0 mm
11:25 -13.2 °C -17.6 °C 34395 hPa WNW 9 km/h 9 km/h 57 % 0 mm
11:26 -13.2 °C -17.6 °C 34395 hPa WSW 11.9 km/h 11.9 km/h 57 % 0 mm
11:30 -13.1 °C -17.6 °C 34395 hPa West 22.5 km/h 22.5 km/h 57 % 0 mm
11:35 -13.1 °C -17.7 °C 34395 hPa WSW 14 km/h 14 km/h 56 % 0 mm
11:37 -13.1 °C -17.7 °C 34395 hPa NE 15 km/h 15 km/h 56 % 0 mm
11:41 -13 °C -17.6 °C 34395 hPa West 15 km/h 15 km/h 56 % 0 mm
11:46 -13 °C -17.7 °C 34395 hPa WSW 15 km/h 15 km/h 55 % 0 mm
11:51 -12.9 °C -17.7 °C 34395 hPa WNW 17.9 km/h 17.9 km/h 55 % 0 mm
11:52 -12.9 °C -17.7 °C 34395 hPa West 17.9 km/h 17.9 km/h 55 % 0 mm
11:55 -12.9 °C -17.8 °C 34395 hPa West 17.9 km/h 17.9 km/h 54 % 0 mm
11:58 -12.9 °C -17.8 °C 34395 hPa WNW 15 km/h 15 km/h 54 % 0 mm
12:03 -12.7 °C -17.6 °C 34395 hPa WSW 15 km/h 15 km/h 54 % 0 mm
12:04 -12.7 °C -17.6 °C 34395 hPa WSW 15 km/h 15 km/h 54 % 0 mm
12:09 -12.6 °C -17.6 °C 34395 hPa WSW 11.9 km/h 11.9 km/h 54 % 0 mm
12:12 -12.4 °C -17.4 °C 34361.1 hPa SSW 11.9 km/h 11.9 km/h 54 % 0 mm
12:15 -12.4 °C -17.3 °C 34361.1 hPa West 11.9 km/h 11.9 km/h 54 % 0 mm
12:20 -12.3 °C -17.4 °C 34361.1 hPa SW 11.9 km/h 15.3 km/h 53 % 0 mm
12:21 -12.3 °C -17.4 °C 34361.1 hPa West 11.9 km/h 11.9 km/h 53 % 0 mm
12:26 -12.1 °C -17.2 °C 34395 hPa NNW 11.9 km/h 11.9 km/h 53 % 0 mm
12:28 -12.1 °C -17.2 °C 34395 hPa NNW 16.1 km/h 16.1 km/h 53 % 0 mm
12:32 -12.1 °C -17.3 °C 34395 hPa WSW 15 km/h 15 km/h 52 % 0 mm
12:37 -12.1 °C -17.3 °C 34395 hPa West 11.9 km/h 11.9 km/h 52 % 0 mm
12:39 -12.1 °C -17.3 °C 34395 hPa WNW 17.9 km/h 17.9 km/h 52 % 0 mm
12:42 -11.9 °C -17.1 °C 34395 hPa West 11.9 km/h 11.9 km/h 52 % 0 mm
12:47 -11.9 °C -17.3 °C 34395 hPa WNW 15 km/h 15 km/h 51 % 0 mm
12:48 -11.9 °C -17.3 °C 34395 hPa West 11.9 km/h 11.9 km/h 51 % 0 mm
12:53 -11.8 °C -17.3 °C 34395 hPa SW 8.5 km/h 8.5 km/h 51 % 0 mm
12:54 -11.8 °C -17.2 °C 34395 hPa WSW 9 km/h 9 km/h 51 % 0 mm
12:59 -11.7 °C -17.1 °C 34361.1 hPa WSW 15 km/h 15 km/h 51 % 0 mm
13:00 -11.7 °C -17.1 °C 34361.1 hPa WSW 9.8 km/h 9.8 km/h 51 % 0 mm
13:05 -11.7 °C -17.1 °C 34361.1 hPa WNW 17.9 km/h 17.9 km/h 51 % 0 mm
13:07 -11.6 °C -17.1 °C 34361.1 hPa WNW 9 km/h 9 km/h 51 % 0 mm
13:11 -11.6 °C -17.2 °C 34395 hPa WNW 11.9 km/h 11.9 km/h 50 % 0 mm
13:16 -11.6 °C -17.1 °C 34395 hPa WNW 17.9 km/h 17.9 km/h 50 % 0 mm
13:21 -11.6 °C -17.3 °C 34395 hPa West 15 km/h 15 km/h 49 % 0 mm
13:25 -11.6 °C -17.3 °C 34395 hPa West 15.3 km/h 15.3 km/h 49 % 0 mm
13:28 -11.6 °C -17.3 °C 34361.1 hPa WSW 20.9 km/h 20.9 km/h 49 % 0 mm
13:33 -11.7 °C -17.6 °C 34361.1 hPa South 18.3 km/h 18.3 km/h 48 % 0 mm
13:35 -11.6 °C -17.5 °C 34361.1 hPa West 20.9 km/h 20.9 km/h 48 % 0 mm
13:37 -11.6 °C -17.5 °C 34361.1 hPa South 20.9 km/h 20.9 km/h 48 % 0 mm
13:42 -11.5 °C -17.4 °C 34395 hPa WSW 9 km/h 9 km/h 48 % 0 mm
13:44 -11.6 °C -17.4 °C 34395 hPa SW 9 km/h 9.8 km/h 48 % 0 mm
13:49 -11.5 °C -17.4 °C 34395 hPa WSW 6 km/h 6 km/h 48 % 0 mm
13:50 -11.5 °C -17.4 °C 34395 hPa WNW 6.3 km/h 6.3 km/h 48 % 0 mm
13:55 -11.4 °C -17.7 °C 34395 hPa ENE 11.9 km/h 11.9 km/h 46 % 0 mm
13:58 -11.4 °C -17.6 °C 34395 hPa NNW 9 km/h 9 km/h 46 % 0 mm
14:00 -11.4 °C -17.4 °C 34395 hPa NNW 9 km/h 9 km/h 47 % 0 mm
14:05 -11.1 °C -17.4 °C 34395 hPa West 15 km/h 15 km/h 46 % 0 mm
14:06 -11.1 °C -17.4 °C 34395 hPa East 9 km/h 9 km/h 46 % 0 mm
14:08 -11.1 °C -17.5 °C 34395 hPa North 11.9 km/h 14 km/h 45 % 0 mm
14:12 -11.1 °C -17.7 °C 34395 hPa WSW 15 km/h 15 km/h 44 % 0 mm
14:17 -11.1 °C -17.6 °C 34395 hPa WSW 11.9 km/h 11.9 km/h 45 % 0 mm
14:18 -11.1 °C -17.7 °C 34395 hPa NE 8.5 km/h 8.5 km/h 44 % 0 mm
14:23 -11.1 °C -17.7 °C 34395 hPa SW 9 km/h 9 km/h 44 % 0 mm
14:24 -11.1 °C -17.7 °C 34395 hPa NW 9 km/h 9 km/h 44 % 0 mm
14:29 -11 °C -17.6 °C 34395 hPa WNW 15 km/h 15 km/h 44 % 0 mm
14:32 -11.1 °C -17.8 °C 34395 hPa SW 20.9 km/h 20.9 km/h 43 % 0 mm
14:34 -11 °C -17.8 °C 34395 hPa WSW 16.1 km/h 16.1 km/h 43 % 0 mm
14:39 -11 °C -17.8 °C 34395 hPa WNW 6 km/h 6.3 km/h 43 % 0 mm
14:41 -11 °C -17.8 °C 34395 hPa NW 17.9 km/h 17.9 km/h 43 % 0 mm
14:42 -11 °C -17.8 °C 34395 hPa SW 17.9 km/h 17.9 km/h 43 % 0 mm
14:47 -11 °C -17.8 °C 34395 hPa SW 8 km/h 8 km/h 43 % 0 mm
14:51 -11.1 °C -17.8 °C 34395 hPa WSW 17.9 km/h 17.9 km/h 43 % 0 mm
14:56 -11 °C -17.8 °C 34395 hPa West 16.1 km/h 16.1 km/h 43 % 0 mm
14:57 -11.1 °C -17.8 °C 34395 hPa WNW 15 km/h 15 km/h 43 % 0 mm
15:02 -10.9 °C -17.7 °C 34395 hPa South 20.9 km/h 20.9 km/h 43 % 0 mm
15:06 -10.9 °C -17.7 °C 34395 hPa West 15 km/h 15 km/h 43 % 0 mm
15:08 -10.9 °C -17.7 °C 34395 hPa West 15 km/h 15 km/h 43 % 0 mm
15:13 -10.8 °C -17.7 °C 34395 hPa WSW 11.9 km/h 11.9 km/h 43 % 0 mm
15:18 -10.8 °C -17.6 °C 34395 hPa WSW 15 km/h 15 km/h 43 % 0 mm
15:20 -10.8 °C -17.8 °C 34395 hPa West 11.9 km/h 11.9 km/h 42 % 0 mm
15:25 -10.8 °C -17.8 °C 34395 hPa WSW 15 km/h 15 km/h 42 % 0 mm
15:30 -10.9 °C -17.9 °C 34395 hPa WSW 11.9 km/h 11.9 km/h 42 % 0 mm
15:31 -10.8 °C -17.8 °C 34395 hPa WSW 12.7 km/h 12.7 km/h 42 % 0 mm
15:36 -10.8 °C -17.8 °C 34395 hPa West 11.9 km/h 11.9 km/h 42 % 0 mm
15:41 -10.8 °C -17.8 °C 34395 hPa WSW 15.3 km/h 15.3 km/h 42 % 0 mm
15:43 -10.8 °C -18 °C 34395 hPa SSW 17.9 km/h 17.9 km/h 41 % 0 mm
15:48 -10.8 °C -18 °C 34395 hPa SW 17.9 km/h 17.9 km/h 41 % 0 mm
15:49 -10.8 °C -18.2 °C 34395 hPa WSW 9 km/h 9.8 km/h 40 % 0 mm
15:54 -10.8 °C -18 °C 34395 hPa SW 11.9 km/h 11.9 km/h 41 % 0 mm
15:59 -10.8 °C -18 °C 34428.8 hPa WSW 9 km/h 9 km/h 41 % 0 mm
16:04 -10.9 °C -18.1 °C 34428.8 hPa West 11.9 km/h 11.9 km/h 41 % 0 mm
16:05 -10.9 °C -18.2 °C 34428.8 hPa WNW 10.3 km/h 10.3 km/h 40 % 0 mm
16:10 -10.9 °C -18.3 °C 34428.8 hPa West 11.9 km/h 11.9 km/h 40 % 0 mm
16:11 -10.9 °C -18.3 °C 34428.8 hPa West 11.9 km/h 11.9 km/h 40 % 0 mm
16:16 -11 °C -18.3 °C 34428.8 hPa WNW 11.9 km/h 11.9 km/h 40 % 0 mm
16:17 -11 °C -18.3 °C 34428.8 hPa WSW 11.9 km/h 11.9 km/h 40 % 0 mm
16:21 -11.2 °C -18.5 °C 34428.8 hPa West 17.9 km/h 17.9 km/h 40 % 0 mm
16:22 -11.2 °C -18.5 °C 34428.8 hPa SSW 11.9 km/h 11.9 km/h 40 % 0 mm
16:27 -11.2 °C -18.6 °C 34428.8 hPa West 15 km/h 15 km/h 40 % 0 mm
16:32 -11.3 °C -18.6 °C 34428.8 hPa WSW 16.6 km/h 16.6 km/h 40 % 0 mm
16:33 -11.3 °C -18.7 °C 34428.8 hPa WSW 17.9 km/h 17.9 km/h 40 % 0 mm
16:35 -11.3 °C -18.7 °C 34428.8 hPa SSW 17.9 km/h 17.9 km/h 40 % 0 mm
16:40 -11.4 °C -18.7 °C 34428.8 hPa WSW 17.9 km/h 17.9 km/h 40 % 0 mm
16:45 -11.6 °C -18.8 °C 34462.7 hPa WSW 11.9 km/h 11.9 km/h 40 % 0 mm
16:46 -11.6 °C -18.8 °C 34462.7 hPa West 17.9 km/h 17.9 km/h 40 % 0 mm
16:47 -11.6 °C -18.8 °C 34462.7 hPa WSW 20.9 km/h 20.9 km/h 40 % 0 mm
16:52 -11.7 °C -19 °C 34462.7 hPa WSW 17.9 km/h 17.9 km/h 40 % 0 mm
16:57 -11.8 °C -19.1 °C 34462.7 hPa West 17.9 km/h 17.9 km/h 40 % 0 mm
16:58 -11.8 °C -19.1 °C 34462.7 hPa West 17.9 km/h 17.9 km/h 40 % 0 mm
17:03 -11.9 °C -19 °C 34462.7 hPa West 18.3 km/h 18.3 km/h 41 % 0 mm
17:04 -12 °C -19.1 °C 34462.7 hPa West 17.9 km/h 17.9 km/h 41 % 0 mm
17:09 -12.1 °C -19.1 °C 34462.7 hPa ENE 15 km/h 15.6 km/h 41 % 0 mm
17:10 -12.1 °C -19.2 °C 34462.7 hPa NW 23.8 km/h 23.8 km/h 41 % 0 mm
17:15 -12.3 °C -19.3 °C 34462.7 hPa WSW 17.9 km/h 17.9 km/h 41 % 0 mm
17:17 -12.3 °C -19.3 °C 34462.7 hPa West 20.9 km/h 20.9 km/h 41 % 0 mm
17:22 -12.4 °C -19.2 °C 34462.7 hPa WSW 17.9 km/h 17.9 km/h 42 % 0 mm
17:23 -12.4 °C -19.2 °C 34462.7 hPa WSW 24.3 km/h 24.3 km/h 42 % 0 mm
17:28 -12.5 °C -19.3 °C 34462.7 hPa WSW 20.3 km/h 20.3 km/h 42 % 0 mm
17:29 -12.5 °C -19.3 °C 34462.7 hPa West 20.9 km/h 20.9 km/h 42 % 0 mm
17:35 -12.6 °C -19.2 °C 34462.7 hPa West 12.9 km/h 23.3 km/h 43 % 0 mm
17:36 -12.6 °C -19.3 °C 34462.7 hPa West 11.9 km/h 11.9 km/h 43 % 0 mm
17:41 -12.6 °C -19.3 °C 34462.7 hPa West 23.8 km/h 23.8 km/h 43 % 0 mm
17:42 -12.7 °C -19.3 °C 34462.7 hPa West 15 km/h 15 km/h 43 % 0 mm
17:47 -12.7 °C -19.3 °C 34462.7 hPa WSW 26.9 km/h 26.9 km/h 43 % 0 mm
17:49 -12.7 °C -19.3 °C 34462.7 hPa WSW 15 km/h 15 km/h 43 % 0 mm
17:54 -12.8 °C -19.2 °C 34462.7 hPa West 20.9 km/h 20.9 km/h 44 % 0 mm
17:55 -12.8 °C -19.2 °C 34462.7 hPa WSW 20.9 km/h 20.9 km/h 44 % 0 mm
17:57 -12.8 °C -19.2 °C 34462.7 hPa West 15 km/h 15 km/h 44 % 0 mm
18:00 -12.8 °C -19.3 °C 34462.7 hPa West 17.9 km/h 17.9 km/h 44 % 0 mm
18:05 -12.8 °C -19.1 °C 34462.7 hPa WSW 15 km/h 15 km/h 45 % 0 mm
18:06 -12.8 °C -19.1 °C 34462.7 hPa WSW 17.4 km/h 17.4 km/h 45 % 0 mm
18:11 -12.9 °C -19.2 °C 34462.7 hPa West 15 km/h 15 km/h 45 % 0 mm
18:13 -12.9 °C -19.2 °C 34462.7 hPa WSW 15 km/h 15 km/h 45 % 0 mm
18:15 -12.9 °C -19.2 °C 34462.7 hPa WSW 15 km/h 15 km/h 45 % 0 mm
18:20 -12.9 °C -19.2 °C 34462.7 hPa WSW 11.9 km/h 11.9 km/h 45 % 0 mm
18:22 -13 °C -19.3 °C 34462.7 hPa WNW 9 km/h 9 km/h 45 % 0 mm
18:27 -13.1 °C -19.2 °C 34462.7 hPa WSW 11.9 km/h 11.9 km/h 46 % 0 mm
18:28 -13.1 °C -19.2 °C 34462.7 hPa WSW 11.9 km/h 11.9 km/h 46 % 0 mm
18:30 -13.1 °C -19.2 °C 34462.7 hPa West 11.9 km/h 11.9 km/h 46 % 0 mm
18:33 -13.1 °C -19.2 °C 34462.7 hPa WSW 9 km/h 9 km/h 46 % 0 mm
18:36 -13.2 °C -19.3 °C 34462.7 hPa West 6.3 km/h 6.3 km/h 46 % 0 mm
18:40 -15.8 °C -22.1 °C 34601.5 hPa WSW 2.6 km/h 7.7 km/h 43 % 0 mm
18:41 -13.2 °C -19.3 °C 34462.7 hPa West 9 km/h 9 km/h 46 % 0 mm
18:46 -13.3 °C -19.3 °C 34462.7 hPa West 8.5 km/h 8.5 km/h 46 % 0 mm
18:49 -13.3 °C -19.3 °C 34462.7 hPa WSW 10.3 km/h 10.3 km/h 46 % 0 mm
18:50 -15.7 °C -22.1 °C 34601.5 hPa Calm   5.1 km/h 43 % 0 mm
18:52 -13.2 °C -19.3 °C 34462.7 hPa WSW 9 km/h 9 km/h 46 % 0 mm
18:57 -13.2 °C -19.1 °C 34462.7 hPa West 15 km/h 15 km/h 47 % 0 mm
19:00 -16.2 °C -22.6 °C 34601.5 hPa WSW 7.7 km/h 7.7 km/h 43 % 0 mm
19:02 -13.2 °C -19.1 °C 34462.7 hPa WSW 11.9 km/h 11.9 km/h 47 % 0 mm
19:04 -13.2 °C -19.1 °C 34462.7 hPa West 11.9 km/h 11.9 km/h 47 % 0 mm
19:09 -13.2 °C -19.1 °C 34462.7 hPa WNW 11.9 km/h 11.9 km/h 47 % 0 mm
19:10 -13.2 °C -19.1 °C 34462.7 hPa West 9 km/h 9 km/h 47 % 0 mm
19:14 -13.2 °C -19.1 °C 34462.7 hPa SW 6 km/h 6 km/h 47 % 0 mm
19:19 -13.3 °C -19.2 °C 34462.7 hPa WSW 4.2 km/h 4.2 km/h 47 % 0 mm
19:20 -13.3 °C -19.2 °C 34462.7 hPa West 6 km/h 6 km/h 47 % 0 mm
19:23 -13.3 °C -19.2 °C 34462.7 hPa WSW 6 km/h 6 km/h 47 % 0 mm
19:27 -13.3 °C -19.2 °C 34462.7 hPa WSW 6 km/h 6 km/h 47 % 0 mm
19:28 -13.3 °C -19.3 °C 34462.7 hPa West 6.8 km/h 6.8 km/h 47 % 0 mm
19:30 -16.2 °C -22.6 °C 34601.5 hPa WSW 5.1 km/h 7.7 km/h 43 % 0 mm
19:33 -13.3 °C -19.1 °C 34462.7 hPa WSW 5.6 km/h 5.6 km/h 48 % 0 mm
19:38 -13.2 °C -19 °C 34462.7 hPa West 6 km/h 6 km/h 48 % 0 mm
19:40 -15.9 °C -22.1 °C 34601.5 hPa WSW 5.1 km/h 5.1 km/h 44 % 0 mm
19:41 -13.3 °C -19.1 °C 34462.7 hPa WSW 8 km/h 8 km/h 48 % 0 mm
19:46 -13.3 °C -19.1 °C 34462.7 hPa WSW 6 km/h 6 km/h 48 % 0 mm
19:47 -13.3 °C -19.1 °C 34462.7 hPa WSW 6.8 km/h 6.8 km/h 48 % 0 mm
19:50 -15.8 °C -22.1 °C 34601.5 hPa Calm   5.1 km/h 43 % 0 mm
19:52 -13.4 °C -19.1 °C 34462.7 hPa West 6 km/h 6.8 km/h 48 % 0 mm
19:57 -13.5 °C -19.2 °C 34462.7 hPa West 6 km/h 6 km/h 48 % 0 mm
19:59 -13.5 °C -19.2 °C 34462.7 hPa Calm     48 % 0 mm
20:00 -15.9 °C -22.1 °C 34601.5 hPa Calm   2.6 km/h 44 % 0 mm
20:02 -13.5 °C -19.2 °C 34462.7 hPa West 9 km/h 9 km/h 48 % 0 mm
20:05 -13.5 °C -19.2 °C 34462.7 hPa West 9 km/h 9 km/h 48 % 0 mm
20:08 -13.5 °C -19.2 °C 34462.7 hPa WSW 9 km/h 9 km/h 48 % 0 mm
20:10 -15.9 °C -22.1 °C 34601.5 hPa WSW 2.6 km/h 5.1 km/h 44 % 0 mm
20:13 -13.6 °C -19.3 °C 34462.7 hPa WSW 6.3 km/h 6.3 km/h 48 % 0 mm
20:14 -13.6 °C -19.3 °C 34462.7 hPa WNW 10.3 km/h 10.3 km/h 48 % 0 mm
20:19 -13.5 °C -19.2 °C 34462.7 hPa WNW 15 km/h 15 km/h 48 % 0 mm
20:20 -13.5 °C -19.2 °C 34462.7 hPa WSW 17.9 km/h 17.9 km/h 48 % 0 mm
20:25 -13.5 °C -19.2 °C 34462.7 hPa WSW 15 km/h 15 km/h 48 % 0 mm
20:30 -13.5 °C -19.2 °C 34496.6 hPa West 17.9 km/h 17.9 km/h 48 % 0 mm
20:35 -13.4 °C -19.2 °C 34496.6 hPa WSW 15 km/h 15 km/h 48 % 0 mm
20:36 -13.4 °C -19.2 °C 34496.6 hPa West 15 km/h 15 km/h 48 % 0 mm
20:39 -13.5 °C -19.2 °C 34496.6 hPa WSW 6.3 km/h 6.8 km/h 48 % 0 mm
20:40 -15.8 °C -22.2 °C 34601.5 hPa NNE 5.1 km/h 5.1 km/h 43 % 0 mm
20:41 -13.6 °C -19.3 °C 34496.6 hPa WSW 9 km/h 9 km/h 48 % 0 mm
20:46 -13.6 °C -19.3 °C 34496.6 hPa WSW 17.9 km/h 17.9 km/h 48 % 0 mm
20:47 -13.6 °C -19.3 °C 34496.6 hPa WSW 17.9 km/h 17.9 km/h 48 % 0 mm
20:50 -15.9 °C -22.2 °C 34601.5 hPa Calm   2.6 km/h 43 % 0 mm
20:52 -13.7 °C -19.4 °C 34496.6 hPa WNW 20.9 km/h 20.9 km/h 48 % 0 mm
20:57 -13.7 °C -19.4 °C 34496.6 hPa WSW 11.9 km/h 11.9 km/h 48 % 0 mm
20:58 -13.7 °C -19.4 °C 34496.6 hPa West 11.9 km/h 11.9 km/h 48 % 0 mm
21:00 -13.8 °C -19.5 °C 34496.6 hPa WNW 9 km/h 9 km/h 48 % 0 mm
21:05 -13.8 °C -19.6 °C 34496.6 hPa SSW 3.1 km/h 3.1 km/h 48 % 0 mm
21:09 -13.9 °C -19.7 °C 34496.6 hPa ENE 11.9 km/h 11.9 km/h 48 % 0 mm
21:11 -14.1 °C -19.8 °C 34533.8 hPa NE 9 km/h 9 km/h 48 % 0 mm
21:16 -14.1 °C -19.8 °C 34533.8 hPa NNW 3.7 km/h 3.7 km/h 48 % 0 mm
21:18 -14.2 °C -19.8 °C 34533.8 hPa NNW 3.1 km/h 3.1 km/h 48 % 0 mm
21:19 -14.2 °C -19.8 °C 34533.8 hPa NNW 3.1 km/h 3.1 km/h 48 % 0 mm
21:20 -15.9 °C -22.1 °C 34601.5 hPa Calm   5.1 km/h 44 % 0 mm
21:24 -14.2 °C -19.9 °C 34533.8 hPa WSW 6.8 km/h 6.8 km/h 48 % 0 mm
21:25 -14.3 °C -19.9 °C 34533.8 hPa NW 6 km/h 6 km/h 48 % 0 mm
21:30 -14.4 °C -20.1 °C 34533.8 hPa West 6 km/h 6 km/h 48 % 0 mm
21:32 -14.4 °C -20.1 °C 34533.8 hPa WSW 6 km/h 6 km/h 48 % 0 mm
21:37 -14.4 °C -20.1 °C 34533.8 hPa WSW 6 km/h 6 km/h 48 % 0 mm
21:40 -15.3 °C -21.4 °C 34635.4 hPa West 5.1 km/h 7.7 km/h 45 % 0 mm
21:42 -14.4 °C -20.1 °C 34533.8 hPa WNW 6 km/h 6 km/h 48 % 0 mm
21:47 -14.4 °C -20.1 °C 34533.8 hPa NW 4.2 km/h 4.2 km/h 48 % 0 mm
21:48 -14.4 °C -20.3 °C 34533.8 hPa NNW 3.1 km/h 3.7 km/h 47 % 0 mm
21:49 -14.4 °C -20.3 °C 34533.8 hPa NNW 5.1 km/h 5.1 km/h 47 % 0 mm
21:50 -15.2 °C -21.2 °C 34635.4 hPa West 5.1 km/h 7.7 km/h 45 % 0 mm
21:54 -14.5 °C -20.3 °C 34533.8 hPa ENE 7.6 km/h 7.6 km/h 47 % 0 mm
21:55 -14.4 °C -20.3 °C 34533.8 hPa ENE 8.5 km/h 8.5 km/h 47 % 0 mm
21:56 -14.4 °C -20.3 °C 34533.8 hPa NNW 9 km/h 9 km/h 47 % 0 mm
22:00 -14.4 °C -20.4 °C 34533.8 hPa North 11.9 km/h 11.9 km/h 46 % 0 mm
22:02 -14.4 °C -20.4 °C 34533.8 hPa NNE 11.9 km/h 11.9 km/h 46 % 0 mm
22:07 -14.4 °C -20.4 °C 34533.8 hPa WNW 3.1 km/h 3.1 km/h 46 % 0 mm
22:10 -15 °C -20.9 °C 34635.4 hPa WSW 2.6 km/h 7.7 km/h 46 % 0 mm
22:11 -14.7 °C -20.7 °C 34496.6 hPa WSW 6 km/h 6 km/h 46 % 0 mm
22:14 -14.8 °C -20.8 °C 34496.6 hPa SW 6 km/h 6 km/h 46 % 0 mm
22:17 -14.8 °C -20.8 °C 34496.6 hPa SW 6 km/h 6 km/h 46 % 0 mm
22:20 -14.8 °C -20.7 °C 34496.6 hPa WSW 5.1 km/h 7.7 km/h 46 % 0 mm
22:23 -14.7 °C -20.6 °C 34496.6 hPa WNW 9 km/h 9 km/h 46 % 0 mm
22:26 -14.7 °C -20.7 °C 34533.8 hPa WSW 9 km/h 9 km/h 46 % 0 mm
22:30 -15.1 °C -21.1 °C 34635.4 hPa SW 2.6 km/h 5.1 km/h 46 % 0 mm
22:31 -14.8 °C -20.8 °C 34533.8 hPa SW 4.2 km/h 4.2 km/h 46 % 0 mm
22:32 -14.8 °C -20.7 °C 34533.8 hPa ENE 3.1 km/h   46 % 0 mm
22:40 -14.7 °C -20.8 °C 34533.8 hPa WSW 6.3 km/h 6.3 km/h 45 % 0 mm
22:42 -14.7 °C -20.8 °C 34533.8 hPa SSW 6 km/h 6 km/h 45 % 0 mm
22:47 -14.7 °C -20.8 °C 34533.8 hPa WSW 5.1 km/h 5.1 km/h 45 % 0 mm
22:49 -14.6 °C -20.9 °C 34533.8 hPa WSW 6 km/h 6 km/h 44 % 0 mm
22:50 -15 °C -20.9 °C 34635.4 hPa West 5.1 km/h 10.3 km/h 46 % 0 mm
22:54 -14.7 °C -21 °C 34533.8 hPa SW 3.1 km/h 3.7 km/h 44 % 0 mm
22:57 -14.8 °C -21.1 °C 34533.8 hPa WSW 6.3 km/h 6.3 km/h 44 % 0 mm
23:00 -15.1 °C -21.1 °C 34635.4 hPa West 2.6 km/h 7.7 km/h 46 % 0 mm
23:02 -14.9 °C -21.2 °C 34533.8 hPa WSW 9 km/h 9 km/h 44 % 0 mm
23:07 -15 °C -21.3 °C 34533.8 hPa Calm     44 % 0 mm
23:08 -15 °C -21.3 °C 34533.8 hPa WSW 6.3 km/h   44 % 0 mm
23:10 -15.3 °C -21.2 °C 34635.4 hPa Calm   5.1 km/h 46 % 0 mm
23:13 -14.8 °C -21.2 °C 34567.7 hPa WNW 6 km/h 6 km/h 43 % 0 mm
23:14 -14.8 °C -21.1 °C 34567.7 hPa WNW 6.3 km/h 6.3 km/h 44 % 0 mm
23:18 -14.7 °C -21.2 °C 34567.7 hPa NNW 3.1 km/h 3.1 km/h 43 % 0 mm
23:20 -15.4 °C -21.3 °C 34635.4 hPa West 5.1 km/h 5.1 km/h 46 % 0 mm
23:24 -14.8 °C -21.2 °C 34567.7 hPa SW 3.7 km/h 3.7 km/h 43 % 0 mm
23:29 -15.2 °C -21.6 °C 34567.7 hPa WSW 9 km/h 9 km/h 43 % 0 mm
23:30 -15.5 °C -21.4 °C 34635.4 hPa West 2.6 km/h 5.1 km/h 46 % 0 mm
23:34 -15 °C -21.4 °C 34567.7 hPa WNW 9 km/h 9 km/h 43 % 0 mm
23:36 -15.1 °C -21.4 °C 34567.7 hPa West 2.6 km/h 7.7 km/h 43 % 0 mm
23:37 -15 °C -21.4 °C 34567.7 hPa WSW 7.6 km/h 7.6 km/h 43 % 0 mm
23:40 -15.5 °C -21.4 °C 34635.4 hPa WNW 2.6 km/h 5.1 km/h 46 % 0 mm
23:42 -14.9 °C -21.4 °C 34567.7 hPa NW 6 km/h 6 km/h 43 % 0 mm
23:43 -14.9 °C -21.4 °C 34567.7 hPa NW 6 km/h 6 km/h 43 % 0 mm
23:44 -14.9 °C -21.2 °C 34567.7 hPa West 6 km/h 6 km/h 44 % 0 mm
23:49 -14.9 °C -21.4 °C 34567.7 hPa West 6 km/h   43 % 0 mm
23:50 -15.7 °C -21.6 °C 34635.4 hPa West 5.1 km/h 10.3 km/h 46 % 0 mm
23:53 -14.9 °C -21.4 °C 34567.7 hPa SSW 6 km/h   43 % 0 mm
23:54 -14.9 °C -21.4 °C 34567.7 hPa SSW 6 km/h   43 % 0 mm
23:59 -14.9 °C -21.4 °C 34567.7 hPa WNW 6 km/h   43 % 0 mm
Meteo Sesrovires
Elogis d' Weather Underground - 4 mb

Guio original per  Jim McMurry - jmcmurry@mwt.net Adaptat per a la plantilla per  Wim van der Kuil - Leuven-Template.eu

Trobareu la nostra informacio del temps tambe a:

Weather Underground

AWEKAS